Home > Products > Valid Products > TAF

000
FTUS44 KEPZ 210500
TAFDMN
TAF
KDMN 210532Z 2106/2206 05008KT P6SM VCSH SCT040 BKN080
     FM211200 11008KT P6SM SCT050 BKN120
     FM211800 13010KT P6SM VCTS SCT040CB BKN100=



000
FTUS44 KEPZ 210500
TAFELP
TAF
KELP 210532Z 2106/2206 16008KT P6SM VCSH SCT020 BKN040 BKN100
     FM211200 07009KT P6SM SCT050 BKN120
     FM211900 11008KT P6SM VCTS SCT040CB BKN100=



000
FTUS44 KEPZ 210500
TAFTCS
TAF
KTCS 210532Z 2106/2206 33004KT P6SM VCSH SCT035 BKN050
     FM211200 30007KT P6SM BKN050
     FM211800 16010KT P6SM VCTS SCT040CB BKN100
     FM220300 28008KT P6SM SCT040 BKN100=



000
FTUS44 KEPZ 210100 AAA
TAFDMN
TAF AMD
KDMN 210153Z 2102/2124 11010KT P6SM VCTS SCT040CB BKN100
      TEMPO 2102/2104 3SM TSRA BKN040CB
     FM210400 09008KT P6SM VCSH SCT040 BKN080
     FM211200 11008KT P6SM SCT050 BKN120
     FM211800 13010KT P6SM VCTS SCT040CB BKN100=



000
FTUS44 KEPZ 210100 AAA
TAFDMN
TAF AMD
KDMN 210153Z 2102/2124 11010KT P6SM VCTS SCT040CB BKN100
      TEMPO 2102/2104 3SM TSRA BKN040CB
     FM210400 09008KT P6SM VCSH SCT040 BKN080
     FM211200 11008KT P6SM SCT050 BKN120
     FM211800 13010KT P6SM VCTS SCT040CB BKN100=



000
FTUS44 KEPZ 202300
TAFTCS
TAF
KTCS 202338Z 2100/2124 18010KT P6SM VCTS SCT040CB BKN100
      TEMPO 2100/2102 3SM TSRA BKN030CB
     FM210300 31006KT P6SM VCSH BKN050
     FM211200 32007KT P6SM BKN050
     FM211800 16010KT P6SM VCTS SCT040CB BKN100=



000
FTUS44 KEPZ 202300
TAFDMN
TAF
KDMN 202338Z 2100/2124 11010KT P6SM VCTS SCT040CB BKN100
      TEMPO 2100/2102 3SM TSRA BKN040CB
     FM210300 09008KT P6SM SCT040 BKN080
     FM211200 11008KT P6SM SCT050 BKN120
     FM211800 13010KT P6SM VCTS SCT040CB BKN100=



000
FTUS44 KEPZ 202300
TAFELP
TAF
KELP 202338Z 2100/2124 13009KT P6SM VCTS SCT040CB BKN100
     FM210300 10008KT P6SM SCT030 BKN070
     FM211200 07009KT P6SM SCT050 BKN120
     FM211900 11008KT P6SM VCTS SCT040CB BKN100=



000
FTUS44 KEPZ 201700
TAFDMN
TAF
KDMN 201735Z 2018/2118 09010KT P6SM VCTS SCT020 BKN050CB
      TEMPO 2020/2024 2SM TSRA BKN030CB
     FM210300 06008KT P6SM SCT030 BKN050
     FM211200 07008KT P6SM SCT050 BKN120=



000
FTUS44 KEPZ 201700
TAFTCS
TAF
KTCS 201735Z 2018/2118 02006KT P6SM SCT030 BKN060
     FM202000 09010KT P6SM VCTS SCT030 BKN050CB
      TEMPO 2020/2024 2SM TSRA BKN030CB
     FM210300 31006KT P6SM VCSH BKN050
     FM211200 32007KT P6SM BKN050=



000
FTUS44 KEPZ 201700
TAFELP
TAF
KELP 201735Z 2018/2118 03009KT P6SM VCTS SCT030 BKN050CB
      TEMPO 2020/2024 2SM TSRA BKN030CB
     FM210300 05008KT P6SM SCT030 BKN070
     FM211200 02009KT P6SM SCT050 BKN120=



000
FTUS44 KEPZ 201100
TAFDMN
TAF
KDMN 201120Z 2012/2112 07006KT P6SM SCT040 BKN120
     FM201800 09011KT P6SM VCTS SCT020 BKN050CB
      TEMPO 2020/2024 2SM TSRA BKN030CB
     FM210300 06008KT P6SM SCT020 BKN050=



000
FTUS44 KEPZ 201100
TAFTCS
TAF
KTCS 201120Z 2012/2112 02006KT P6SM SCT030 BKN060
     FM202000 09010KT P6SM VCTS SCT030 BKN050CB
      TEMPO 2020/2024 2SM TSRA BKN030CB
     FM210300 31006KT P6SM BKN050=



000
FTUS44 KEPZ 201100
TAFELP
TAF
KELP 201120Z 2012/2112 04010KT P6SM FEW015 SCT040 BKN120
     FM201800 09011KT P6SM VCTS SCT020 BKN050CB
      TEMPO 2020/2024 2SM TSRA BKN030CB
     FM210300 05008KT P6SM SCT020 BKN050=



000
FTUS44 KEPZ 200500 RRA
TAFTCS
TAF
KTCS 200546Z 2006/2106 25010KT P6SM -SHRA SCT020 BKN060
     FM200900 34007KT P6SM VCSH SCT020 BKN050
     FM201400 02006KT P6SM VCSH SCT015 BKN040
     FM202100 11008KT P6SM VCTS SCT015 BKN050CB=



000
FTUS44 KEPZ 200500 RRA
TAFDMN
TAF
KDMN 200546Z 2006/2106 07011KT P6SM VCSH SCT020 BKN040
     FM201900 10008KT P6SM VCTS SCT015 BKN050CB=



000
FTUS44 KEPZ 200500 RRA
TAFELP
TAF
KELP 200546Z 2006/2106 36008KT P6SM SCT030 BKN070
      TEMPO 2006/2008 -SHRA BKN030
     FM201000 02007KT P6SM VCSH SCT015 BKN040
     FM202100 10007KT P6SM VCTS SCT010 BKN050CB=



000
FTUS44 KEPZ 200200 AAB
TAFELP
TAF AMD
KELP 200300Z 2003/2024 23010KT P6SM VCTS BKN040CB OVC080
      TEMPO 2003/2005 3SM TSRA BKN030CB
     FM200800 02008KT P6SM -SHRA SCT010 BKN025
     FM201500 07007KT P6SM VCSH SCT008 BKN020
     FM202100 10007KT P6SM VCTS SCT010 BKN030CB=



000
FTUS44 KEPZ 200200 AAA
TAFELP
TAF AMD
KELP 200215Z 2002/2024 23010KT P6SM VCTS BKN040CB OVC080
      TEMPO 2002/2003 23020G45KT 1SM TSRAGS BKN030CB
     FM200800 02008KT P6SM -SHRA SCT010 BKN025
     FM201500 07007KT P6SM VCSH SCT008 BKN020
     FM202100 10007KT P6SM VCTS SCT010 BKN030CB=



000
FTUS44 KEPZ 200200 AAA
TAFDMN
TAF AMD
KDMN 200213Z 2002/2024 03015G25KT P6SM VCSH SCT015 BKN100
     FM200600 07011KT P6SM VCSH SCT020 BKN040
     FM201900 10008KT P6SM VCTS SCT015 BKN040CB=



000
FTUS44 KEPZ 192300
TAFDMN
TAF
KDMN 192323Z 2000/2024 06010KT P6SM VCTS SCT020 BKN050CB
      TEMPO 2000/2004 VRB20G35KT 2SM TSRAGS BKN020CB
     FM200600 06008KT P6SM VCSH SCT015 BKN040
     FM201900 10008KT P6SM VCTS SCT015 BKN040CB=



000
FTUS44 KEPZ 192300
TAFTCS
TAF
KTCS 192323Z 2000/2024 03010KT P6SM SCT100
     FM200400 34007KT P6SM VCSH FEW025 BKN050
      TEMPO 2004/2008 VRB20G35KT 2SM TSRAGS BKN030CB
     FM201400 02006KT P6SM VCSH SCT015 BKN040
     FM202100 11008KT P6SM VCTS SCT015 BKN030CB=



000
FTUS44 KEPZ 192300
TAFELP
TAF
KELP 192323Z 2000/2024 09010KT P6SM SCT060 BKN100
     FM200200 06011KT P6SM SHRA VCTS BKN040CB OVC080
      TEMPO 2002/2006 3SM TSRAGS BKN030CB
     FM200800 02008KT P6SM -SHRA SCT010 BKN025
     FM201500 07007KT P6SM VCSH SCT008 BKN020
     FM202100 10007KT P6SM VCTS SCT010 BKN030CB=



000
FTUS44 KEPZ 192300
TAFDMN
TAF
KDMN 192323Z 2000/2024 06010KT P6SM VCTS SCT020 BKN050CB
      TEMPO 2000/2004 VRB20G35KT 2SM TSRAGS BKN020CB
     FM200600 06008KT P6SM VCSH SCT015 BKN040
     FM201900 10008KT P6SM VCTS SCT015 BKN040CB=



000
FTUS44 KEPZ 192300
TAFELP
TAF
KELP 192323Z 2000/2024 09010KT P6SM SCT060 BKN100
     FM200200 06011KT P6SM SHRA VCTS BKN040CB OVC080
      TEMPO 2002/2006 3SM TSRAGS BKN030CB
     FM200800 02008KT P6SM -SHRA SCT010 BKN025
     FM201500 07007KT P6SM VCSH SCT008 BKN020
     FM202100 10007KT P6SM VCTS SCT010 BKN030CB=



000
FTUS44 KEPZ 192300
TAFTCS
TAF
KTCS 192323Z 2000/2024 03010KT P6SM SCT100
     FM200400 34007KT P6SM VCSH FEW025 BKN050
      TEMPO 2004/2008 VRB20G35KT 2SM TSRAGS BKN030CB
     FM201400 02006KT P6SM VCSH SCT015 BKN040
     FM202100 11008KT P6SM VCTS SCT015 BKN030CB=



000
FTUS44 KEPZ 192000 AAA
TAFELP
TAF AMD
KELP 192008Z 1920/2018 09010G20KT P6SM SCT060 BKN100
     FM200200 06011KT P6SM SHRA VCTS BKN040CB OVC080
      TEMPO 2002/2006 2SM TSRAGS BKN030CB
     FM200800 02008KT P6SM -SHRA SCT010 BKN025
     FM201500 03007KT P6SM VCSH SCT008 BKN015=



000
FTUS44 KEPZ 191700
TAFELP
TAF
KELP 191724Z 1918/2018 07010G20KT P6SM SCT060 BKN100
     FM200200 06011KT P6SM SHRA VCTS BKN040CB OVC080
      TEMPO 2002/2006 2SM TSRAGS BKN030CB
     FM200800 02008KT P6SM -SHRA SCT010 BKN025
     FM201500 03007KT P6SM VCSH SCT008 BKN015=



000
FTUS44 KEPZ 191700
TAFDMN
TAF
KDMN 191724Z 1918/2018 09012G20KT P6SM SCT050 BKN100
      TEMPO 1922/2002 VRB20G35KT 2SM TSRAGS BKN030CB
     FM200200 06010KT P6SM VCTS SCT020 BKN050CB
      TEMPO 2002/2006 VRB20G35KT 2SM TSRAGS BKN020CB
     FM200600 06008KT P6SM VCSH SCT015 BKN040=



000
FTUS44 KEPZ 191700
TAFTCS
TAF
KTCS 191724Z 1918/2018 02008KT P6SM VCTS SCT060CB BKN100
      TEMPO 1918/1920 4SM -TSRAGS BKN050CB
     FM192000 10010KT P6SM VCTS SCT040CB BKN100
      TEMPO 1923/2003 VRB20G35KT 2SM TSRAGS BKN030CB
     FM200400 34007KT P6SM VCSH FEW025 BKN050
     FM201400 02006KT P6SM VCSH SCT015 BKN040=



000
FTUS44 KEPZ 191600 AAA
TAFDMN
TAF AMD
KDMN 191642Z 1917/2012 10010G20KT P6SM VCTS SCT040CB BKN100
      TEMPO 1917/1919 VRB20G35KT 2SM TSRAGS BKN040CB
     FM200200 06010KT P6SM VCTS SCT020 BKN050CB
      TEMPO 2002/2006 VRB20G35KT 2SM TSRAGS BKN020CB
     FM200600 06008KT P6SM VCSH SCT015 BKN040=



000
FTUS44 KEPZ 191300 AAA
TAFTCS
TAF AMD
KTCS 191324Z 1913/2012 35008KT P6SM VCTS SCT060CB BKN120
     FM192000 10010KT P6SM VCTS SCT040CB BKN100
     FM200000 06010KT P6SM VCTS SCT040CB BKN100
      TEMPO 2000/2004 2SM TSRA BKN030CB=



000
FTUS44 KEPZ 191300 AAA
TAFELP
TAF AMD
KELP 191321Z 1913/2012 03010KT P6SM VCTS SCT060CB BKN100
     FM191600 07009KT P6SM SCT070 BKN100
     FM192000 10010KT P6SM VCTS SCT040CB BKN100
     FM200200 08013KT P6SM SHRA VCTS BKN040CB
      TEMPO 2002/2006 2SM TSRA BKN030CB=



000
FTUS44 KEPZ 191100
TAFDMN
TAF
KDMN 191135Z 1912/2012 09010KT P6SM SCT100 BKN250
     FM191800 10010KT P6SM VCTS SCT040CB BKN100
      TEMPO 1921/2001 2SM TSRA BKN030CB
     FM200100 06010KT 4SM TSRA BKN030CB=



000
FTUS44 KEPZ 191100
TAFELP
TAF
KELP 191135Z 1912/2012 03010KT P6SM SCT100 BKN250
     FM192000 10010KT P6SM VCTS SCT040CB BKN100
     FM200200 08013KT P6SM SHRA VCTS BKN040CB
      TEMPO 2002/2006 2SM TSRA BKN030CB=



000
FTUS44 KEPZ 191100
TAFTCS
TAF
KTCS 191135Z 1912/2012 03008KT P6SM SCT100 BKN250
     FM192000 10010KT P6SM VCTS SCT040CB BKN100
     FM200000 06010KT P6SM VCTS SCT040CB BKN100
      TEMPO 2000/2004 2SM TSRA BKN030CB=



000
FTUS44 KEPZ 190500
TAFELP
TAF
KELP 190524Z 1906/2006 07011KT P6SM FEW080 SCT100
     FM191000 09009KT P6SM VCTS SCT020CB BKN070
     FM192000 11008KT P6SM VCTS SCT040CB BKN080=



000
FTUS44 KEPZ 190500
TAFTCS
TAF
KTCS 190524Z 1906/2006 15011KT P6SM SCT080
     FM191000 33008KT P6SM VCSH SCT030 BKN060
     FM191800 17006KT P6SM VCTS SCT030CB BKN060
     FM200300 27008KT P6SM VCTS SCT030CB BKN060=



000
FTUS44 KEPZ 190500
TAFDMN
TAF
KDMN 190524Z 1906/2006 09011G20KT P6SM VCTS SCT030CB BKN070
     FM191000 09010KT P6SM VCTS SCT030CB BKN060
     FM192000 12008KT P6SM VCTS SCT040CB BKN080=



000
FTUS44 KEPZ 182300
TAFDMN
TAF
KDMN 182338Z 1900/1924 09010G20KT P6SM SCT090
     FM190300 07011KT P6SM FEW050 BKN100
     FM190900 09010KT P6SM VCTS SCT030CB BKN060
     FM192000 12008KT P6SM VCTS SCT040CB BKN080=



000
FTUS44 KEPZ 182300
TAFTCS
TAF
KTCS 182338Z 1900/1924 15011KT P6SM SCT080
     FM190300 33005KT P6SM FEW030 SCT070
     FM191000 02008KT P6SM VCSH SCT030 BKN060
     FM191800 17006KT P6SM VCTS SCT030CB BKN060=



000
FTUS44 KEPZ 182300
TAFELP
TAF
KELP 182338Z 1900/1924 09012G20KT P6SM FEW080 SCT100
     FM190300 04010KT P6SM BKN080
     FM191000 07009KT P6SM VCTS SCT020CB BKN070
     FM192000 11008KT P6SM VCTS SCT040CB BKN080=



000
FTUS44 KEPZ 181700
TAFDMN
TAF
KDMN 181731Z 1818/1918 09010G20KT P6SM SCT090
     FM190200 07011KT P6SM FEW050 BKN100
     FM190900 07010KT P6SM VCTS SCT030CB BKN060=



000
FTUS44 KEPZ 181700
TAFTCS
TAF
KTCS 181731Z 1818/1918 07010KT P6SM SCT090
     FM182000 15011G20KT P6SM SCT080
     FM190300 33005KT P6SM FEW050 BKN070
     FM191000 02008KT P6SM VCSH SCT030 BKN060=



000
FTUS44 KEPZ 181700
TAFELP
TAF
KELP 181731Z 1818/1918 09012G20KT P6SM FEW080 SCT100
     FM190300 04010KT P6SM BKN080
     FM191000 04009KT P6SM VCTS SCT020CB BKN070=



000
FTUS44 KEPZ 181600 AAB
TAFELP
TAF AMD
KELP 181606Z 1816/1912 09008KT P6SM FEW070 SCT100 BKN150
     FM181900 09012G20KT P6SM SCT100
     FM190200 04014G24KT P6SM SCT040 BKN120=



000
FTUS44 KEPZ 181600 AAB
TAFELP
TAF AMD
KELP 181606Z 1816/1912 09008KT P6SM FEW070 SCT100 BKN150
     FM181900 09012G20KT P6SM SCT100
     FM190200 04014G24KT P6SM SCT040 BKN120=



000
FTUS44 KEPZ 181100 AAA
TAFELP
TAF AMD
KELP 181151Z 1812/1912 04012KT P6SM VCTS SCT040CB BKN100
      TEMPO 1812/1814 5SM TSRA BKN040CB
     FM181600 09014KT P6SM VCTS SCT040CB BKN100
     FM190200 04014G24KT P6SM SCT040 BKN120=



000
FTUS44 KEPZ 181100
TAFDMN
TAF
KDMN 181121Z 1812/1912 08007KT P6SM SCT120 BKN250
     FM181800 09010KT P6SM VCSH SCT050 BKN120
     FM190300 07012G20KT P6SM FEW050 BKN120=



000
FTUS44 KEPZ 181100
TAFELP
TAF
KELP 181121Z 1812/1912 04012KT P6SM VCTS SCT040CB BKN100
     FM181600 09014KT P6SM VCTS SCT040CB BKN100
     FM190200 04014G24KT P6SM SCT040 BKN120=



000
FTUS44 KEPZ 181100
TAFTCS
TAF
KTCS 181121Z 1812/1912 36010KT P6SM SCT050 BKN120
     FM181900 11011KT P6SM SCT050 BKN110
     FM190300 11010KT P6SM SCT050 BKN110=



000
FTUS44 KEPZ 181100
TAFELP
TAF
KELP 181121Z 1812/1912 04012KT P6SM VCTS SCT040CB BKN100
     FM181600 09014KT P6SM VCTS SCT040CB BKN100
     FM190200 04014G24KT P6SM SCT040 BKN120=



000
FTUS44 KEPZ 181100
TAFDMN
TAF
KDMN 181121Z 1812/1912 08007KT P6SM SCT120 BKN250
     FM181800 09010KT P6SM VCSH SCT050 BKN120
     FM190300 07012G20KT P6SM FEW050 BKN120=



000
FTUS44 KEPZ 181100
TAFTCS
TAF
KTCS 181121Z 1812/1912 36010KT P6SM SCT050 BKN120
     FM181900 11011KT P6SM SCT050 BKN110
     FM190300 11010KT P6SM SCT050 BKN110=



    US Dept of Commerce
    National Oceanic and Atmospheric Administration
    National Weather Service
    1325 East West Highway
    Silver Spring, MD 20910
    Page Author: NWS Internet Services Team
Disclaimer
Information Quality
Credits
Glossary
Privacy Policy
Freedom of Information Act (FOIA)
About Us
Career Opportunities